Time;durP1;ratioP1;P1;durP2;ratioP2;P2;SDS_P1;SDS_P2;PMS_P1;PMS_P2;Temp;Humidity;BMP_temperature;BMP_pressure;BME280_temperature;BME280_humidity;BME280_pressure;Samples;Min_cycle;Max_cycle;Signal;HPM_P1;HPM_P2
2023/01/26 00:01:16;;;;;;;13.60;10.02;;;1.10;99.90;;;;;;5049439;28;20331;-75
2023/01/26 00:03:42;;;;;;;14.45;9.45;;;1.10;99.90;;;;;;5052889;28;20202;-76
2023/01/26 00:06:11;;;;;;;14.40;9.50;;;1.10;99.90;;;;;;5051904;28;20208;-76
2023/01/26 00:08:37;;;;;;;16.38;10.10;;;1.10;99.90;;;;;;5051604;28;20425;-76
2023/01/26 00:11:04;;;;;;;15.60;10.10;;;1.10;99.90;;;;;;5053237;28;20211;-76
2023/01/26 00:13:30;;;;;;;18.25;10.20;;;1.00;99.90;;;;;;5052987;28;20176;-77
2023/01/26 00:15:56;;;;;;;16.50;9.33;;;1.10;99.90;;;;;;5053100;28;20267;-76
2023/01/26 00:18:21;;;;;;;14.10;8.33;;;1.00;99.90;;;;;;5051197;28;20528;-75
2023/01/26 00:20:49;;;;;;;15.03;9.50;;;0.90;99.90;;;;;;5052563;28;20187;-77
2023/01/26 00:23:14;;;;;;;20.25;9.88;;;0.90;99.90;;;;;;5052990;28;20555;-76
2023/01/26 00:25:40;;;;;;;14.07;9.47;;;0.90;99.90;;;;;;5051434;28;20192;-76
2023/01/26 00:28:06;;;;;;;12.70;9.00;;;1.00;99.90;;;;;;5052748;28;20184;-77
2023/01/26 00:30:31;;;;;;;13.80;9.23;;;0.80;99.90;;;;;;5051246;28;20641;-76
2023/01/26 00:32:57;;;;;;;13.93;10.00;;;0.80;99.90;;;;;;5050643;28;20788;-76
2023/01/26 00:35:23;;;;;;;15.20;9.87;;;0.80;99.90;;;;;;5034145;28;20216;-76
2023/01/26 00:37:48;;;;;;;17.70;10.10;;;0.80;99.90;;;;;;5051659;28;20314;-76
2023/01/26 00:40:14;;;;;;;13.83;9.60;;;0.80;99.90;;;;;;5050232;28;20672;-77
2023/01/26 00:42:40;;;;;;;18.37;10.20;;;0.80;99.90;;;;;;5052186;28;20211;-77
2023/01/26 00:45:06;;;;;;;17.67;10.87;;;0.80;99.90;;;;;;5052211;28;20176;-76
2023/01/26 00:47:31;;;;;;;16.80;9.13;;;0.90;99.90;;;;;;5050858;28;20272;-77
2023/01/26 00:49:57;;;;;;;16.37;10.80;;;0.90;99.90;;;;;;5050515;28;20418;-76
2023/01/26 00:52:22;;;;;;;20.20;11.60;;;0.90;99.90;;;;;;5051585;28;20243;-76
2023/01/26 00:54:48;;;;;;;18.03;9.30;;;0.90;99.90;;;;;;5033850;28;20711;-76
2023/01/26 00:57:13;;;;;;;16.90;10.80;;;0.80;99.90;;;;;;5033675;28;20194;-76
2023/01/26 00:59:39;;;;;;;16.23;10.13;;;0.80;99.90;;;;;;5051528;28;20184;-77
2023/01/26 01:02:05;;;;;;;16.27;10.70;;;0.90;99.90;;;;;;5033594;28;20286;-76
2023/01/26 01:04:30;;;;;;;18.00;11.00;;;0.80;99.90;;;;;;5050435;28;20206;-77
2023/01/26 01:06:57;;;;;;;19.37;11.87;;;0.80;99.90;;;;;;5050791;28;20180;-77
2023/01/26 01:09:23;;;;;;;18.23;10.93;;;0.80;99.90;;;;;;5051794;28;20664;-76
2023/01/26 01:11:49;;;;;;;17.83;11.50;;;0.80;99.90;;;;;;5050290;28;20215;-77
2023/01/26 01:14:15;;;;;;;15.47;9.70;;;0.90;99.90;;;;;;5050151;28;20733;-77
2023/01/26 01:16:41;;;;;;;16.63;9.97;;;0.90;99.90;;;;;;5051632;28;20187;-76
2023/01/26 01:19:07;;;;;;;16.40;10.55;;;0.90;99.90;;;;;;5052000;28;20425;-76
2023/01/26 01:21:35;;;;;;;17.47;10.00;;;0.80;99.90;;;;;;5051487;28;20211;-77
2023/01/26 01:24:00;;;;;;;16.65;10.07;;;0.80;99.90;;;;;;5052656;28;20815;-76
2023/01/26 01:26:26;;;;;;;17.43;11.33;;;0.90;99.90;;;;;;5051637;28;20198;-78
2023/01/26 01:28:56;;;;;;;15.70;9.87;;;0.90;99.90;;;;;;5053475;28;20222;-78
2023/01/26 01:31:23;;;;;;;18.10;10.80;;;0.90;99.90;;;;;;5051230;28;20615;-77
2023/01/26 01:33:48;;;;;;;17.05;10.07;;;0.80;99.90;;;;;;5050717;28;20208;-77
2023/01/26 01:36:15;;;;;;;18.40;11.13;;;0.80;99.90;;;;;;5051071;28;20193;-77
2023/01/26 01:38:43;;;;;;;15.18;9.95;;;0.90;99.90;;;;;;5052391;28;20714;-77
2023/01/26 01:41:09;;;;;;;17.25;10.75;;;0.80;99.90;;;;;;5051820;28;20208;-77
2023/01/26 01:43:35;;;;;;;19.33;11.52;;;0.60;99.90;;;;;;5049691;28;20194;-76
2023/01/26 01:46:10;;;;;;;18.38;11.50;;;0.60;99.90;;;;;;5049381;28;20199;-76
2023/01/26 01:48:39;;;;;;;16.33;10.90;;;0.50;99.90;;;;;;5049480;28;20207;-76
2023/01/26 01:51:13;;;;;;;16.17;9.23;;;0.60;99.90;;;;;;5050607;28;20208;-76
2023/01/26 01:53:46;;;;;;;19.88;12.57;;;0.70;99.90;;;;;;5050739;28;20230;-76
2023/01/26 01:56:20;;;;;;;20.90;11.68;;;0.70;99.90;;;;;;5049594;28;20185;-77
2023/01/26 01:58:50;;;;;;;16.20;11.27;;;0.70;99.90;;;;;;5049399;28;20229;-77
2023/01/26 02:01:15;;;;;;;21.25;11.63;;;0.70;99.90;;;;;;5050630;28;20215;-76
2023/01/26 02:03:45;;;;;;;17.77;10.65;;;0.70;99.90;;;;;;5050665;28;20246;-77
2023/01/26 02:06:38;;;;;;;16.92;11.63;;;0.70;99.90;;;;;;5050799;28;20722;-77
2023/01/26 02:09:05;;;;;;;20.52;12.30;;;0.70;99.90;;;;;;5043811;28;20257;-77
2023/01/26 02:11:39;;;;;;;17.27;11.05;;;0.80;99.90;;;;;;5050895;28;20199;-77
2023/01/26 02:14:07;;;;;;;13.40;9.20;;;0.80;99.90;;;;;;5049879;28;20207;-77
2023/01/26 02:16:33;;;;;;;17.42;10.27;;;0.80;99.90;;;;;;5049842;28;20180;-76
2023/01/26 02:18:59;;;;;;;19.77;10.97;;;0.80;99.90;;;;;;5049877;28;20187;-76
2023/01/26 02:21:25;;;;;;;19.20;11.07;;;0.70;99.90;;;;;;5052223;28;20545;-77
2023/01/26 02:24:01;;;;;;;18.77;10.30;;;0.70;99.90;;;;;;5054344;28;20426;-76
2023/01/26 02:26:30;;;;;;;17.50;11.25;;;0.80;99.90;;;;;;5053895;28;20203;-77
2023/01/26 02:28:56;;;;;;;16.83;10.63;;;0.80;99.90;;;;;;5054207;28;20734;-76
2023/01/26 02:31:22;;;;;;;20.00;11.27;;;0.80;99.90;;;;;;5053608;28;20203;-76
2023/01/26 02:33:48;;;;;;;20.48;11.50;;;0.70;99.90;;;;;;5052636;28;20187;-75
2023/01/26 02:36:33;;;;;;;17.42;11.30;;;0.70;99.90;;;;;;5053709;28;20188;-76
2023/01/26 02:39:10;;;;;;;17.50;10.68;;;0.70;99.90;;;;;;5052831;28;20266;-77
2023/01/26 02:44:20;;;;;;;20.25;11.55;;;0.70;99.90;;;;;;5050424;28;20198;-77
2023/01/26 02:46:46;;;;;;;20.10;10.60;;;0.70;99.90;;;;;;5050263;28;20286;-77
2023/01/26 02:51:55;;;;;;;18.33;10.85;;;0.80;99.90;;;;;;5049332;28;20229;-76
2023/01/26 02:57:05;;;;;;;19.73;11.45;;;0.80;99.90;;;;;;5050028;28;20174;-77
2023/01/26 02:59:30;;;;;;;18.90;11.80;;;0.80;99.90;;;;;;5049254;28;20200;-76
2023/01/26 03:01:57;;;;;;;20.10;11.63;;;0.80;99.90;;;;;;5032195;28;20640;-76
2023/01/26 03:04:23;;;;;;;21.38;12.68;;;0.80;99.90;;;;;;5049853;28;20179;-76
2023/01/26 03:06:48;;;;;;;21.80;13.37;;;0.80;99.90;;;;;;5050627;28;20281;-77
2023/01/26 03:09:14;;;;;;;19.30;12.47;;;0.80;99.90;;;;;;5048931;28;20419;-76
2023/01/26 03:11:42;;;;;;;20.00;12.03;;;0.80;99.90;;;;;;5049354;28;20211;-77
2023/01/26 03:14:13;;;;;;;17.02;10.77;;;0.80;99.90;;;;;;5049799;28;20212;-76
2023/01/26 03:16:39;;;;;;;19.48;11.55;;;0.80;99.90;;;;;;5050029;28;20866;-77
2023/01/26 03:29:49;;;;;;;14.10;9.45;;;0.80;99.90;;;;;;5050483;28;20633;-77
2023/01/26 03:32:14;;;;;;;20.03;10.43;;;0.80;99.90;;;;;;5031852;28;20207;-77
2023/01/26 03:34:40;;;;;;;17.37;10.40;;;0.80;99.90;;;;;;5031454;28;20219;-77
2023/01/26 03:37:05;;;;;;;20.70;11.33;;;0.80;99.90;;;;;;5052288;28;20199;-77
2023/01/26 03:56:19;;;;;;;14.60;9.55;;;0.80;99.90;;;;;;5052402;28;20194;-78
2023/01/26 03:58:47;;;;;;;15.10;8.73;;;0.80;99.90;;;;;;5053708;28;20531;-78
2023/01/26 04:01:18;;;;;;;14.57;8.90;;;0.80;99.90;;;;;;5051226;28;20220;-77
2023/01/26 04:09:18;;;;;;;14.23;8.30;;;0.80;99.90;;;;;;5052611;28;20350;-77
2023/01/26 04:11:44;;;;;;;16.03;9.30;;;0.80;99.90;;;;;;5051452;28;20748;-77
2023/01/26 04:22:25;;;;;;;15.68;9.20;;;0.70;99.90;;;;;;5052695;28;20218;-76
2023/01/26 04:24:51;;;;;;;16.38;9.40;;;0.60;99.90;;;;;;5052445;28;20699;-77
2023/01/26 04:27:16;;;;;;;15.33;8.87;;;0.60;99.90;;;;;;5052926;28;20224;-78
2023/01/26 04:29:42;;;;;;;15.93;9.53;;;0.60;99.90;;;;;;5051842;28;20183;-77
2023/01/26 04:32:08;;;;;;;17.80;8.73;;;0.60;99.90;;;;;;5051801;28;20699;-77
2023/01/26 04:34:33;;;;;;;16.60;8.57;;;0.60;99.90;;;;;;5051396;28;20238;-75
2023/01/26 04:36:59;;;;;;;13.83;8.33;;;0.70;99.90;;;;;;5051398;28;20186;-77
2023/01/26 04:39:24;;;;;;;15.50;8.90;;;0.70;99.90;;;;;;5052831;28;20184;-77
2023/01/26 04:41:50;;;;;;;19.67;10.53;;;0.80;99.90;;;;;;5053623;28;20204;-78
2023/01/26 04:44:16;;;;;;;14.93;9.73;;;0.80;99.90;;;;;;5038422;28;20223;-79
2023/01/26 04:46:41;;;;;;;17.70;10.47;;;0.70;99.90;;;;;;5052198;28;20711;-78
2023/01/26 04:49:07;;;;;;;13.37;8.50;;;0.80;99.90;;;;;;5038343;28;20196;-79
2023/01/26 04:51:33;;;;;;;15.43;8.85;;;0.70;99.90;;;;;;5057415;28;20207;-79
2023/01/26 04:53:59;;;;;;;12.27;8.47;;;0.70;99.90;;;;;;5057468;28;20219;-79
2023/01/26 04:56:30;;;;;;;15.67;8.93;;;0.70;99.90;;;;;;5039181;28;20489;-77
2023/01/26 04:58:59;;;;;;;16.15;8.80;;;0.60;99.90;;;;;;5057213;28;20175;-77
2023/01/26 05:01:25;;;;;;;16.15;9.90;;;0.60;99.90;;;;;;5056999;28;20361;-77
2023/01/26 05:03:50;;;;;;;18.10;9.73;;;0.60;99.90;;;;;;5055238;28;20569;-78
2023/01/26 05:06:16;;;;;;;16.73;9.43;;;0.60;99.90;;;;;;5056896;28;20184;-78
2023/01/26 05:08:42;;;;;;;18.23;10.30;;;0.50;99.90;;;;;;5053868;28;20215;-77
2023/01/26 05:11:07;;;;;;;20.27;11.37;;;0.60;99.90;;;;;;5054656;28;20212;-79
2023/01/26 05:13:34;;;;;;;17.33;9.37;;;0.60;99.90;;;;;;5054055;28;20187;-78
2023/01/26 05:16:01;;;;;;;19.10;11.48;;;0.60;99.90;;;;;;5055785;28;20257;-78
2023/01/26 05:18:27;;;;;;;19.77;10.80;;;0.60;99.90;;;;;;5055526;28;20184;-78
2023/01/26 05:20:53;;;;;;;20.75;11.07;;;0.50;99.90;;;;;;5052406;28;20267;-78
2023/01/26 05:23:19;;;;;;;20.80;10.73;;;0.50;99.90;;;;;;5053973;28;20267;-78
2023/01/26 05:25:44;;;;;;;18.03;10.30;;;0.60;99.90;;;;;;5054685;28;20907;-79
2023/01/26 05:28:10;;;;;;;21.47;11.23;;;0.50;99.90;;;;;;5052539;28;20241;-80
2023/01/26 05:30:36;;;;;;;23.40;10.87;;;0.50;99.90;;;;;;5053399;28;20192;-78
2023/01/26 05:33:06;;;;;;;23.87;12.07;;;0.40;99.90;;;;;;5056025;28;20610;-78
2023/01/26 05:35:32;;;;;;;24.30;11.70;;;0.40;99.90;;;;;;5055146;28;20235;-78
2023/01/26 05:37:58;;;;;;;20.73;11.40;;;0.50;99.90;;;;;;5051524;28;20185;-76
2023/01/26 05:40:25;;;;;;;21.90;12.03;;;0.50;99.90;;;;;;5049994;28;20684;-78
2023/01/26 05:42:51;;;;;;;23.98;10.80;;;0.40;99.90;;;;;;5051312;28;20200;-78
2023/01/26 05:45:17;;;;;;;19.77;10.90;;;0.40;99.90;;;;;;5051480;28;20694;-77
2023/01/26 05:47:44;;;;;;;24.27;13.87;;;0.40;99.90;;;;;;5051199;28;20270;-77
2023/01/26 05:50:10;;;;;;;23.08;11.15;;;0.40;99.90;;;;;;5051287;28;20451;-78
2023/01/26 05:52:36;;;;;;;20.98;10.40;;;0.40;99.90;;;;;;5051400;28;20285;-78
2023/01/26 05:55:03;;;;;;;22.27;11.50;;;0.40;99.90;;;;;;5051038;28;20324;-78
2023/01/26 05:57:28;;;;;;;21.02;9.90;;;0.40;99.90;;;;;;5051208;28;20180;-77
2023/01/26 05:59:54;;;;;;;18.73;10.13;;;0.40;99.90;;;;;;5049773;28;20208;-76
2023/01/26 06:02:20;;;;;;;16.63;8.97;;;0.50;99.90;;;;;;5049408;28;20199;-77
2023/01/26 06:04:45;;;;;;;15.13;8.90;;;0.50;99.90;;;;;;5050419;28;20191;-75
2023/01/26 06:07:14;;;;;;;16.77;9.13;;;0.50;99.90;;;;;;5050283;28;20517;-76
2023/01/26 06:09:40;;;;;;;21.13;9.10;;;0.50;99.90;;;;;;5050277;28;20187;-77
2023/01/26 06:12:15;;;;;;;14.93;9.18;;;0.50;99.90;;;;;;5048649;28;20203;-76
2023/01/26 06:14:41;;;;;;;20.38;10.57;;;0.60;99.90;;;;;;5050381;28;20194;-76
2023/01/26 06:17:06;;;;;;;22.47;10.70;;;0.60;99.90;;;;;;5048822;28;20187;-76
2023/01/26 06:19:32;;;;;;;18.83;10.00;;;0.70;99.90;;;;;;5050121;28;20560;-76
2023/01/26 06:21:58;;;;;;;17.70;10.83;;;0.60;99.90;;;;;;5031865;28;20213;-74
2023/01/26 06:24:23;;;;;;;19.00;10.40;;;0.60;99.90;;;;;;5031875;28;20191;-76
2023/01/26 06:26:49;;;;;;;19.50;11.20;;;0.70;99.90;;;;;;5049627;28;20655;-75
2023/01/26 06:29:15;;;;;;;15.17;9.67;;;0.60;99.90;;;;;;5049665;28;20191;-76
2023/01/26 06:31:41;;;;;;;14.80;10.00;;;0.60;99.90;;;;;;5049720;28;20443;-75
2023/01/26 06:34:07;;;;;;;15.57;9.90;;;0.50;99.90;;;;;;5050036;28;20214;-76
2023/01/26 06:36:33;;;;;;;15.88;9.23;;;0.60;99.90;;;;;;5049157;28;20193;-75
2023/01/26 06:38:59;;;;;;;9.80;6.30;;;0.60;99.90;;;;;;5047489;28;20184;-75
2023/01/26 06:41:25;;;;;;;18.40;11.10;;;0.60;99.90;;;;;;5030910;28;20453;-76
2023/01/26 06:43:51;;;;;;;17.67;10.20;;;0.50;99.90;;;;;;5030808;28;20189;-77
2023/01/26 06:46:18;;;;;;;22.20;10.20;;;0.50;99.90;;;;;;5048601;28;20425;-75
2023/01/26 06:48:44;;;;;;;14.98;9.02;;;0.60;99.90;;;;;;5046989;28;20434;-76
2023/01/26 06:51:18;;;;;;;16.70;7.90;;;0.50;99.90;;;;;;5030562;28;20212;-75
2023/01/26 06:53:54;;;;;;;11.60;8.27;;;0.60;99.90;;;;;;5046994;28;20441;-74
2023/01/26 06:56:20;;;;;;;11.65;7.45;;;0.60;99.90;;;;;;5048372;28;20215;-76
2023/01/26 06:58:46;;;;;;;15.50;8.80;;;0.60;99.90;;;;;;5048394;28;20203;-75
2023/01/26 07:01:24;;;;;;;13.47;8.30;;;0.60;99.90;;;;;;5048295;28;20220;-76
2023/01/26 07:03:51;;;;;;;12.68;7.90;;;0.50;99.90;;;;;;5047017;28;20209;-75
2023/01/26 07:06:17;;;;;;;14.18;7.53;;;0.60;99.90;;;;;;5048238;28;20184;-76
2023/01/26 07:08:42;;;;;;;13.40;7.70;;;0.60;99.90;;;;;;5046848;28;20184;-75
2023/01/26 07:11:08;;;;;;;27.07;8.57;;;0.60;99.90;;;;;;5046580;28;20228;-76
2023/01/26 07:13:34;;;;;;;16.00;8.25;;;0.70;99.90;;;;;;5030136;28;20197;-77
2023/01/26 07:16:01;;;;;;;12.87;8.27;;;0.60;99.90;;;;;;5048693;28;20216;-76
2023/01/26 07:18:27;;;;;;;12.90;8.10;;;0.30;99.90;;;;;;5046867;28;20179;-76
2023/01/26 07:20:52;;;;;;;13.87;8.40;;;0.30;99.90;;;;;;5048462;28;20184;-75
2023/01/26 07:23:18;;;;;;;11.90;7.80;;;0.30;99.90;;;;;;5047062;28;20188;-76
2023/01/26 07:25:43;;;;;;;13.93;8.37;;;0.40;99.90;;;;;;5049011;28;20563;-77
2023/01/26 07:28:09;;;;;;;12.10;8.20;;;0.40;99.90;;;;;;5047446;28;20256;-77
2023/01/26 07:30:35;;;;;;;10.40;6.47;;;0.40;99.90;;;;;;5047985;28;20185;-76
2023/01/26 07:33:01;;;;;;;10.15;6.18;;;0.40;99.90;;;;;;5048205;28;20231;-76
2023/01/26 07:35:28;;;;;;;10.75;6.07;;;0.40;99.90;;;;;;5046707;28;20682;-75
2023/01/26 07:37:56;;;;;;;9.30;5.28;;;0.40;99.90;;;;;;5047267;28;20270;-76
2023/01/26 07:40:22;;;;;;;14.13;6.05;;;0.40;99.90;;;;;;5048205;28;20184;-77
2023/01/26 07:42:47;;;;;;;8.57;5.93;;;0.50;99.90;;;;;;5046701;28;20199;-77
2023/01/26 07:45:16;;;;;;;12.20;6.10;;;0.60;99.90;;;;;;5048399;28;20180;-77
2023/01/26 07:47:42;;;;;;;11.30;6.60;;;0.50;99.90;;;;;;5046709;28;20261;-76
2023/01/26 07:50:09;;;;;;;10.70;7.43;;;0.60;99.90;;;;;;5048252;28;20555;-76
2023/01/26 07:52:35;;;;;;;20.77;8.07;;;0.60;99.90;;;;;;5048352;28;20582;-77
2023/01/26 07:55:01;;;;;;;20.17;9.50;;;0.60;99.90;;;;;;5048464;28;20215;-76
2023/01/26 07:57:26;;;;;;;15.97;9.27;;;0.60;99.90;;;;;;5048200;28;20419;-76
2023/01/26 07:59:52;;;;;;;20.80;10.80;;;0.60;99.90;;;;;;5047857;28;20195;-76
2023/01/26 08:02:18;;;;;;;17.70;9.70;;;0.70;99.90;;;;;;5047680;28;20215;-76
2023/01/26 08:04:43;;;;;;;21.00;10.60;;;0.70;99.90;;;;;;5047785;28;20286;-76
2023/01/26 08:07:09;;;;;;;17.00;10.00;;;0.60;99.90;;;;;;5048054;28;20188;-76
2023/01/26 08:09:34;;;;;;;16.77;9.67;;;0.60;99.90;;;;;;5046361;28;20185;-76
2023/01/26 08:12:00;;;;;;;16.70;9.30;;;0.70;99.90;;;;;;5047783;28;20209;-76
2023/01/26 08:14:26;;;;;;;17.40;10.03;;;0.70;99.90;;;;;;5046375;28;20853;-76
2023/01/26 08:16:52;;;;;;;18.87;9.87;;;0.70;99.90;;;;;;5048005;28;20212;-77
2023/01/26 08:19:17;;;;;;;23.67;11.60;;;0.70;99.90;;;;;;5046542;28;20222;-75
2023/01/26 08:21:43;;;;;;;19.07;10.40;;;0.70;99.90;;;;;;5047439;28;20199;-75
2023/01/26 08:24:11;;;;;;;16.60;9.87;;;0.70;99.90;;;;;;5049846;28;20485;-76
2023/01/26 08:26:36;;;;;;;17.10;9.85;;;0.70;99.90;;;;;;5051420;28;20184;-76
2023/01/26 08:29:02;;;;;;;14.77;8.10;;;0.70;99.90;;;;;;5051431;28;20195;-76
2023/01/26 08:31:28;;;;;;;16.30;8.60;;;0.70;99.90;;;;;;5050137;28;20238;-76
2023/01/26 08:33:55;;;;;;;14.90;7.80;;;0.70;99.90;;;;;;5049552;28;20428;-76
2023/01/26 08:36:21;;;;;;;14.48;8.10;;;0.70;99.90;;;;;;5051124;28;20176;-76
2023/01/26 08:38:47;;;;;;;15.85;9.13;;;0.60;99.90;;;;;;5049629;28;20726;-76
2023/01/26 08:41:12;;;;;;;19.20;8.53;;;0.60;99.90;;;;;;5052535;28;20209;-77
2023/01/26 08:43:38;;;;;;;16.03;8.20;;;0.60;99.90;;;;;;5049811;28;20196;-76
2023/01/26 08:46:05;;;;;;;18.40;9.50;;;0.60;99.90;;;;;;5049805;28;20190;-76
2023/01/26 08:48:31;;;;;;;17.27;9.90;;;0.60;99.90;;;;;;5051288;28;20261;-76
2023/01/26 08:51:01;;;;;;;18.60;9.30;;;0.60;99.90;;;;;;5051159;28;20662;-76
2023/01/26 08:53:31;;;;;;;19.77;11.02;;;0.60;99.90;;;;;;5049810;28;20870;-76
2023/01/26 08:56:00;;;;;;;18.45;10.27;;;0.60;99.90;;;;;;5049883;28;20272;-76
2023/01/26 08:58:26;;;;;;;17.42;9.38;;;0.50;99.90;;;;;;5049786;28;20556;-75
2023/01/26 09:00:51;;;;;;;17.53;9.17;;;0.60;99.90;;;;;;5049867;28;20209;-75
2023/01/26 09:03:18;;;;;;;22.20;10.17;;;0.50;99.90;;;;;;5051706;28;20237;-77
2023/01/26 09:05:43;;;;;;;15.65;8.85;;;0.50;99.90;;;;;;5049954;28;20278;-76
2023/01/26 09:08:09;;;;;;;20.00;9.67;;;0.50;99.90;;;;;;5051627;28;20274;-76
2023/01/26 09:10:37;;;;;;;17.93;8.63;;;0.50;99.90;;;;;;5050305;28;20199;-76
2023/01/26 09:13:03;;;;;;;23.58;9.70;;;0.40;99.90;;;;;;5050079;28;20312;-77
2023/01/26 09:15:28;;;;;;;19.87;9.53;;;0.40;99.90;;;;;;5050225;28;20200;-77
2023/01/26 09:17:54;;;;;;;21.00;9.17;;;0.40;99.90;;;;;;5051179;28;20177;-76
2023/01/26 09:20:20;;;;;;;18.70;10.40;;;0.40;99.90;;;;;;5051382;28;20180;-76
2023/01/26 09:22:46;;;;;;;20.10;9.63;;;0.40;99.90;;;;;;5050716;28;20570;-76
2023/01/26 09:25:12;;;;;;;15.90;9.10;;;0.40;99.90;;;;;;5049074;28;20274;-77
2023/01/26 09:27:38;;;;;;;27.10;11.10;;;0.40;99.90;;;;;;5051209;28;20285;-77
2023/01/26 09:30:05;;;;;;;25.70;11.00;;;0.40;99.90;;;;;;5049538;28;20465;-77
2023/01/26 09:32:31;;;;;;;19.15;10.60;;;0.30;99.90;;;;;;5051009;28;20575;-77
2023/01/26 09:34:57;;;;;;;17.77;10.13;;;0.30;99.90;;;;;;5050601;28;20215;-76
2023/01/26 09:37:22;;;;;;;19.27;10.27;;;0.30;99.90;;;;;;5050390;28;20238;-76
2023/01/26 09:39:48;;;;;;;21.60;11.20;;;0.30;99.90;;;;;;5050637;28;20649;-76
2023/01/26 09:42:36;;;;;;;20.20;10.17;;;0.20;99.90;;;;;;5051786;28;20196;-77
2023/01/26 09:45:11;;;;;;;22.48;11.55;;;0.20;99.90;;;;;;5051403;28;20273;-76
2023/01/26 09:47:36;;;;;;;20.33;11.07;;;0.20;99.90;;;;;;5051091;28;20277;-77
2023/01/26 09:50:09;;;;;;;22.40;10.10;;;0.20;99.90;;;;;;5051367;28;20549;-76
2023/01/26 09:52:57;;;;;;;17.60;8.93;;;0.20;99.90;;;;;;5050364;28;20203;-76
2023/01/26 09:55:24;;;;;;;22.52;11.10;;;0.20;99.90;;;;;;5047704;28;20222;-76
2023/01/26 09:57:57;;;;;;;21.52;11.20;;;0.30;99.90;;;;;;5049790;28;20629;-77
2023/01/26 10:00:36;;;;;;;22.02;10.57;;;0.20;99.90;;;;;;5050163;28;20703;-76
2023/01/26 10:03:07;;;;;;;23.98;10.63;;;0.30;99.90;;;;;;5050214;28;20203;-77
2023/01/26 10:05:42;;;;;;;22.60;11.82;;;0.30;99.90;;;;;;5050554;28;20187;-77
2023/01/26 10:08:13;;;;;;;22.75;10.38;;;0.30;99.90;;;;;;5049088;28;20187;-77
2023/01/26 10:11:00;;;;;;;24.10;10.75;;;0.30;99.90;;;;;;5049638;28;20180;-76
2023/01/26 10:13:27;;;;;;;22.42;10.70;;;0.30;99.90;;;;;;5048007;28;20645;-77
2023/01/26 10:16:00;;;;;;;27.05;10.80;;;0.30;99.90;;;;;;5047526;28;20219;-77
2023/01/26 10:18:58;;;;;;;23.30;10.60;;;0.30;99.90;;;;;;5047430;28;20285;-77
2023/01/26 10:21:29;;;;;;;18.92;9.52;;;0.30;99.90;;;;;;5045633;28;20219;-77
2023/01/26 10:23:59;;;;;;;17.50;9.82;;;0.40;99.90;;;;;;5049083;28;20186;-75
2023/01/26 10:26:30;;;;;;;16.48;9.13;;;0.40;99.90;;;;;;5049478;28;20182;-76
2023/01/26 10:28:56;;;;;;;18.30;9.50;;;0.40;99.90;;;;;;5051348;28;20187;-76
2023/01/26 10:31:25;;;;;;;15.77;8.57;;;0.40;99.90;;;;;;5048752;28;20238;-76
2023/01/26 10:34:00;;;;;;;22.73;10.55;;;0.40;99.90;;;;;;5049269;28;20652;-76
2023/01/26 10:36:29;;;;;;;28.33;10.07;;;0.40;99.90;;;;;;5049257;28;20730;-75
2023/01/26 10:39:06;;;;;;;22.15;9.93;;;0.30;99.90;;;;;;5031460;28;20188;-77
2023/01/26 10:41:32;;;;;;;16.00;9.35;;;0.30;99.90;;;;;;5049504;28;20213;-76
2023/01/26 10:44:06;;;;;;;25.55;11.77;;;0.30;99.90;;;;;;5047979;28;20183;-75
2023/01/26 10:46:33;;;;;;;21.70;11.18;;;0.30;99.90;;;;;;5049204;28;20186;-76
2023/01/26 10:49:14;;;;;;;28.38;13.13;;;0.20;99.90;;;;;;5049473;28;20740;-77
2023/01/26 10:51:44;;;;;;;33.40;14.00;;;0.20;99.90;;;;;;5049463;28;20207;-74
2023/01/26 10:54:18;;;;;;;29.35;12.73;;;0.20;99.90;;;;;;5049662;28;21012;-76
2023/01/26 10:56:47;;;;;;;30.50;13.40;;;0.20;99.90;;;;;;5049445;28;20183;-75
2023/01/26 10:59:21;;;;;;;25.98;11.40;;;0.30;99.90;;;;;;5049063;28;20242;-77
2023/01/26 11:01:52;;;;;;;19.25;10.15;;;0.30;99.90;;;;;;5051884;28;20249;-76
2023/01/26 11:04:18;;;;;;;26.33;12.63;;;0.20;99.90;;;;;;5048920;28;20188;-76
2023/01/26 11:06:44;;;;;;;18.30;9.40;;;0.30;99.90;;;;;;5048636;28;20187;-77
2023/01/26 11:09:12;;;;;;;17.13;8.93;;;0.30;99.90;;;;;;5048385;28;20191;-77
2023/01/26 11:11:38;;;;;;;16.95;9.00;;;0.30;99.90;;;;;;5046635;28;20215;-77
2023/01/26 11:14:11;;;;;;;17.47;9.50;;;0.30;99.90;;;;;;5046982;28;20192;-76
2023/01/26 11:16:37;;;;;;;23.27;11.65;;;0.30;99.90;;;;;;5049820;28;20176;-77
2023/01/26 11:19:23;;;;;;;21.48;10.68;;;0.30;99.90;;;;;;5048635;28;20203;-77
2023/01/26 11:22:00;;;;;;;21.52;10.00;;;0.40;99.90;;;;;;5048065;28;20195;-78
2023/01/26 11:24:50;;;;;;;19.70;10.80;;;0.30;99.90;;;;;;5048002;28;20774;-76
2023/01/26 11:27:30;;;;;;;18.23;10.80;;;0.40;99.90;;;;;;5046424;28;20214;-78
2023/01/26 11:30:21;;;;;;;21.45;11.40;;;0.30;99.90;;;;;;5049399;28;20176;-76
2023/01/26 11:32:55;;;;;;;22.83;11.30;;;0.30;99.90;;;;;;5047807;28;20201;-76
2023/01/26 11:35:21;;;;;;;15.80;9.88;;;0.30;99.90;;;;;;5046310;28;20206;-77
2023/01/26 11:37:52;;;;;;;15.80;9.03;;;0.30;99.90;;;;;;5047709;28;20176;-76
2023/01/26 11:40:47;;;;;;;15.52;8.57;;;0.20;99.90;;;;;;5045885;28;20480;-76
2023/01/26 11:43:18;;;;;;;19.85;9.38;;;0.30;99.90;;;;;;5045764;28;20193;-76
2023/01/26 11:46:11;;;;;;;19.17;9.98;;;0.20;99.90;;;;;;5045705;28;20183;-76
2023/01/26 11:49:22;;;;;;;20.35;11.80;;;0.20;99.90;;;;;;5047364;28;20211;-76
2023/01/26 11:52:22;;;;;;;17.85;10.10;;;0.20;99.90;;;;;;5012965;28;20312;-76
2023/01/26 11:55:06;;;;;;;21.88;11.05;;;0.30;99.90;;;;;;5045573;28;20656;-76
2023/01/26 11:57:49;;;;;;;21.42;10.98;;;0.30;99.90;;;;;;5047227;28;20601;-76
2023/01/26 12:00:17;;;;;;;28.13;13.05;;;0.30;99.90;;;;;;5049955;28;20618;-75
2023/01/26 12:02:55;;;;;;;18.65;9.68;;;0.40;99.90;;;;;;5051446;28;20750;-76
2023/01/26 12:05:49;;;;;;;18.98;10.63;;;0.30;99.90;;;;;;5051559;28;20541;-77
2023/01/26 12:08:20;;;;;;;19.25;11.25;;;0.30;99.90;;;;;;5051389;28;20192;-75
2023/01/26 12:11:24;;;;;;;20.23;11.20;;;0.40;99.90;;;;;;5049955;28;20192;-76
2023/01/26 12:14:01;;;;;;;18.05;9.88;;;0.40;99.90;;;;;;5051899;28;20217;-76
2023/01/26 12:16:42;;;;;;;18.83;11.15;;;0.40;99.90;;;;;;5050026;28;20199;-76
2023/01/26 12:19:33;;;;;;;15.32;8.88;;;0.30;99.90;;;;;;5050691;28;20242;-77
2023/01/26 12:22:13;;;;;;;16.65;9.10;;;0.20;99.90;;;;;;5051067;28;20273;-78
2023/01/26 12:24:49;;;;;;;15.60;9.20;;;0.20;99.90;;;;;;5051141;28;20190;-77
2023/01/26 12:27:33;;;;;;;18.13;9.63;;;0.20;99.90;;;;;;5050998;28;20184;-76
2023/01/26 12:30:35;;;;;;;17.88;8.52;;;0.30;99.90;;;;;;5050697;28;20188;-76
2023/01/26 12:33:01;;;;;;;18.58;9.65;;;0.30;99.90;;;;;;5050528;28;20214;-77
2023/01/26 12:36:04;;;;;;;18.43;10.43;;;0.40;99.90;;;;;;5032442;28;20223;-77
2023/01/26 12:38:47;;;;;;;18.42;10.35;;;0.40;99.90;;;;;;5050280;28;20178;-75
2023/01/26 12:41:31;;;;;;;18.40;10.90;;;0.40;99.90;;;;;;5050496;28;20696;-76
2023/01/26 12:44:24;;;;;;;17.80;10.82;;;0.40;99.90;;;;;;5048801;28;20198;-77
2023/01/26 12:46:55;;;;;;;17.13;10.25;;;0.30;99.90;;;;;;5050868;28;20635;-76
2023/01/26 12:49:29;;;;;;;17.38;10.32;;;0.30;99.90;;;;;;5048918;28;20195;-76
2023/01/26 12:52:05;;;;;;;13.43;8.40;;;0.20;99.90;;;;;;5050347;28;20548;-76
2023/01/26 12:54:43;;;;;;;14.88;8.73;;;0.20;99.90;;;;;;5050211;28;20211;-76
2023/01/26 12:57:19;;;;;;;13.82;7.40;;;0.20;99.90;;;;;;5048516;28;20276;-77
2023/01/26 12:59:45;;;;;;;14.40;8.27;;;0.10;99.90;;;;;;5049880;28;20311;-76
2023/01/26 13:02:24;;;;;;;14.75;8.50;;;0.10;99.90;;;;;;5049643;28;20192;-76
2023/01/26 13:04:51;;;;;;;19.23;8.70;;;0.20;99.90;;;;;;5048461;28;20287;-76
2023/01/26 13:07:38;;;;;;;15.93;8.48;;;0.20;99.90;;;;;;5048192;28;20184;-76
2023/01/26 13:10:16;;;;;;;16.35;8.98;;;0.30;99.90;;;;;;5049140;28;20600;-76
2023/01/26 13:13:19;;;;;;;18.20;9.48;;;0.20;99.90;;;;;;5048423;28;20637;-76
2023/01/26 13:15:45;;;;;;;17.02;8.20;;;0.20;99.90;;;;;;5047811;28;20244;-76
2023/01/26 13:18:16;;;;;;;14.77;9.30;;;0.20;99.90;;;;;;5049581;28;20219;-76
2023/01/26 13:20:43;;;;;;;14.20;8.48;;;0.20;99.90;;;;;;5048100;28;20605;-75
2023/01/26 13:23:42;;;;;;;17.25;9.45;;;0.20;99.90;;;;;;5049384;28;20183;-76
2023/01/26 13:26:18;;;;;;;16.88;9.45;;;0.20;99.90;;;;;;5041285;28;20803;-76
2023/01/26 13:28:46;;;;;;;25.42;12.35;;;0.20;99.90;;;;;;5049570;28;20563;-76
2023/01/26 13:31:12;;;;;;;22.23;12.10;;;0.30;99.90;;;;;;5049400;28;20198;-77
2023/01/26 13:33:40;;;;;;;23.88;11.52;;;0.20;99.90;;;;;;5048283;28;20179;-76
2023/01/26 13:36:14;;;;;;;25.83;13.05;;;0.20;99.90;;;;;;5048025;28;20228;-76
2023/01/26 13:38:50;;;;;;;23.42;12.75;;;0.10;99.90;;;;;;5049366;28;20249;-75
2023/01/26 13:41:20;;;;;;;25.92;12.18;;;0.20;99.90;;;;;;5048958;28;20204;-76
2023/01/26 13:43:54;;;;;;;19.23;11.43;;;0.20;99.90;;;;;;5047714;28;20183;-76